sensor_id;sensor_type;location;lat;lon;timestamp;pressure;altitude;pressure_sealevel;temperature;humidity
52469;BME280;38381;53.688;10.776;2023-02-23T00:02:01;100883.44;;;6.22;93.63
52469;BME280;38381;53.688;10.776;2023-02-23T00:07:04;100882.56;;;6.22;93.52
52469;BME280;38381;53.688;10.776;2023-02-23T00:12:06;100888.56;;;6.22;93.65
52469;BME280;38381;53.688;10.776;2023-02-23T00:17:09;100884.69;;;6.05;94.54
52469;BME280;38381;53.688;10.776;2023-02-23T00:22:13;100883.09;;;6.10;93.55
52469;BME280;38381;53.688;10.776;2023-02-23T00:27:13;100880.16;;;5.96;95.37
52469;BME280;38381;53.688;10.776;2023-02-23T00:32:18;100884.75;;;6.08;94.01
52469;BME280;38381;53.688;10.776;2023-02-23T00:37:19;100874.56;;;6.11;94.44
52469;BME280;38381;53.688;10.776;2023-02-23T00:42:22;100883.09;;;6.10;93.83
52469;BME280;38381;53.688;10.776;2023-02-23T00:47:22;100866.63;;;6.03;93.47
52469;BME280;38381;53.688;10.776;2023-02-23T00:52:23;100869.94;;;5.99;93.96
52469;BME280;38381;53.688;10.776;2023-02-23T00:57:23;100872.41;;;5.95;94.16
52469;BME280;38381;53.688;10.776;2023-02-23T01:02:23;100872.03;;;5.82;94.79
52469;BME280;38381;53.688;10.776;2023-02-23T01:07:24;100871.19;;;5.83;95.11
52469;BME280;38381;53.688;10.776;2023-02-23T01:12:25;100876.47;;;5.88;94.69
52469;BME280;38381;53.688;10.776;2023-02-23T01:17:25;100872.03;;;5.82;95.27
52469;BME280;38381;53.688;10.776;2023-02-23T01:22:26;100864.72;;;5.66;96.13
52469;BME280;38381;53.688;10.776;2023-02-23T01:27:27;100873.38;;;5.68;95.61
52469;BME280;38381;53.688;10.776;2023-02-23T01:32:28;100866.63;;;5.73;95.66
52469;BME280;38381;53.688;10.776;2023-02-23T01:37:32;100865.53;;;5.65;95.61
52469;BME280;38381;53.688;10.776;2023-02-23T01:42:38;100860.50;;;5.68;96.01
52469;BME280;38381;53.688;10.776;2023-02-23T01:47:38;100863.25;;;5.74;95.46
52469;BME280;38381;53.688;10.776;2023-02-23T01:52:39;100856.84;;;5.60;96.06
52469;BME280;38381;53.688;10.776;2023-02-23T01:57:40;100854.16;;;5.57;95.80
52469;BME280;38381;53.688;10.776;2023-02-23T02:02:41;100855.19;;;5.62;96.40
52469;BME280;38381;53.688;10.776;2023-02-23T02:07:45;100849.13;;;5.61;95.55
52469;BME280;38381;53.688;10.776;2023-02-23T02:12:53;100852.69;;;5.65;95.80
52469;BME280;38381;53.688;10.776;2023-02-23T02:18:26;100843.13;;;5.61;95.86
52469;BME280;38381;53.688;10.776;2023-02-23T02:34:12;100838.94;;;5.64;95.67
52469;BME280;38381;53.688;10.776;2023-02-23T02:39:36;100834.38;;;5.54;95.22
52469;BME280;38381;53.688;10.776;2023-02-23T02:49:58;100829.69;;;5.39;96.50
52469;BME280;38381;53.688;10.776;2023-02-23T02:55:15;100836.56;;;5.40;96.14
52469;BME280;38381;53.688;10.776;2023-02-23T03:00:21;100823.06;;;5.48;95.78
52469;BME280;38381;53.688;10.776;2023-02-23T03:05:44;100829.84;;;5.46;96.63
52469;BME280;38381;53.688;10.776;2023-02-23T03:22:29;100825.47;;;5.43;96.30
52469;BME280;38381;53.688;10.776;2023-02-23T03:27:53;100829.69;;;5.39;95.87
52469;BME280;38381;53.688;10.776;2023-02-23T03:33:17;100821.06;;;5.37;95.93
52469;BME280;38381;53.688;10.776;2023-02-23T03:38:42;100829.53;;;5.35;96.64
52469;BME280;38381;53.688;10.776;2023-02-23T03:44:13;100823.34;;;5.28;96.82
52469;BME280;38381;53.688;10.776;2023-02-23T03:49:35;100827.00;;;5.36;96.25
52469;BME280;38381;53.688;10.776;2023-02-23T03:54:58;100827.75;;;5.32;95.92
52469;BME280;38381;53.688;10.776;2023-02-23T04:00:24;100824.34;;;5.33;96.33
52469;BME280;38381;53.688;10.776;2023-02-23T04:05:47;100825.00;;;5.26;96.69
52469;BME280;38381;53.688;10.776;2023-02-23T04:11:36;100829.44;;;5.32;96.14
52469;BME280;38381;53.688;10.776;2023-02-23T04:16:56;100842.81;;;5.20;96.80
52469;BME280;38381;53.688;10.776;2023-02-23T04:21:57;100835.22;;;5.24;97.12
52469;BME280;38381;53.688;10.776;2023-02-23T04:26:57;100829.03;;;5.18;97.23
52469;BME280;38381;53.688;10.776;2023-02-23T04:31:58;100828.53;;;5.30;96.02
52469;BME280;38381;53.688;10.776;2023-02-23T04:36:58;100839.50;;;5.24;96.69
52469;BME280;38381;53.688;10.776;2023-02-23T04:41:59;100834.28;;;5.21;96.77
52469;BME280;38381;53.688;10.776;2023-02-23T04:46:59;100841.09;;;5.19;97.31
52469;BME280;38381;53.688;10.776;2023-02-23T04:52:00;100835.84;;;5.16;97.42
52469;BME280;38381;53.688;10.776;2023-02-23T04:57:00;100835.34;;;5.28;97.33
52469;BME280;38381;53.688;10.776;2023-02-23T05:02:01;100827.66;;;5.29;96.84
52469;BME280;38381;53.688;10.776;2023-02-23T05:07:02;100829.31;;;5.27;96.73
52469;BME280;38381;53.688;10.776;2023-02-23T05:12:03;100821.44;;;5.21;98.09
52469;BME280;38381;53.688;10.776;2023-02-23T05:17:05;100820.91;;;5.33;97.72
52469;BME280;38381;53.688;10.776;2023-02-23T05:22:06;100820.66;;;5.23;97.43
52469;BME280;38381;53.688;10.776;2023-02-23T05:27:08;100822.94;;;5.14;98.49
52469;BME280;38381;53.688;10.776;2023-02-23T05:32:08;100819.13;;;5.30;98.43
52469;BME280;38381;53.688;10.776;2023-02-23T05:37:09;100820.16;;;5.37;98.25
52469;BME280;38381;53.688;10.776;2023-02-23T05:42:09;100823.28;;;5.25;98.16
52469;BME280;38381;53.688;10.776;2023-02-23T05:47:10;100818.03;;;5.22;98.31
52469;BME280;38381;53.688;10.776;2023-02-23T05:52:10;100814.59;;;5.21;98.37
52469;BME280;38381;53.688;10.776;2023-02-23T05:57:11;100816.28;;;5.21;99.00
52469;BME280;38381;53.688;10.776;2023-02-23T06:02:11;100813.78;;;5.24;98.53
52469;BME280;38381;53.688;10.776;2023-02-23T06:07:12;100816.13;;;5.16;99.11
52469;BME280;38381;53.688;10.776;2023-02-23T06:12:12;100826.59;;;5.22;99.29
52469;BME280;38381;53.688;10.776;2023-02-23T06:17:13;100824.94;;;5.23;98.82
52469;BME280;38381;53.688;10.776;2023-02-23T06:22:13;100835.16;;;5.21;99.13
52469;BME280;38381;53.688;10.776;2023-02-23T06:27:16;100834.38;;;5.24;99.43
52469;BME280;38381;53.688;10.776;2023-02-23T06:32:16;100832.53;;;5.20;99.67
52469;BME280;38381;53.688;10.776;2023-02-23T06:37:17;100833.94;;;5.09;100.00
52469;BME280;38381;53.688;10.776;2023-02-23T06:42:17;100844.41;;;5.15;100.00
52469;BME280;38381;53.688;10.776;2023-02-23T06:47:18;100855.44;;;5.12;100.00
52469;BME280;38381;53.688;10.776;2023-02-23T06:52:18;100857.97;;;5.11;100.00
52469;BME280;38381;53.688;10.776;2023-02-23T06:57:19;100865.22;;;5.24;100.00
52469;BME280;38381;53.688;10.776;2023-02-23T07:02:20;100863.81;;;5.05;100.00
52469;BME280;38381;53.688;10.776;2023-02-23T07:07:21;100865.63;;;5.09;100.00
52469;BME280;38381;53.688;10.776;2023-02-23T07:12:21;100873.63;;;5.18;100.00
52469;BME280;38381;53.688;10.776;2023-02-23T07:17:22;100873.59;;;5.17;100.00
52469;BME280;38381;53.688;10.776;2023-02-23T07:22:22;100880.03;;;5.31;100.00
52469;BME280;38381;53.688;10.776;2023-02-23T07:27:24;100884.69;;;5.16;100.00
52469;BME280;38381;53.688;10.776;2023-02-23T07:32:24;100884.50;;;5.10;100.00
52469;BME280;38381;53.688;10.776;2023-02-23T07:37:25;100895.47;;;5.04;100.00
52469;BME280;38381;53.688;10.776;2023-02-23T07:42:25;100896.88;;;5.21;100.00
52469;BME280;38381;53.688;10.776;2023-02-23T07:47:26;100899.19;;;5.14;100.00
52469;BME280;38381;53.688;10.776;2023-02-23T07:52:30;100899.50;;;5.24;100.00
52469;BME280;38381;53.688;10.776;2023-02-23T07:57:30;100895.47;;;5.33;100.00
52469;BME280;38381;53.688;10.776;2023-02-23T08:02:31;100898.56;;;5.50;100.00
52469;BME280;38381;53.688;10.776;2023-02-23T08:07:32;100902.31;;;5.32;100.00
52469;BME280;38381;53.688;10.776;2023-02-23T08:12:32;100896.19;;;5.27;100.00
52469;BME280;38381;53.688;10.776;2023-02-23T08:17:34;100898.88;;;5.32;100.00
52469;BME280;38381;53.688;10.776;2023-02-23T08:22:35;100896.56;;;5.41;100.00
52469;BME280;38381;53.688;10.776;2023-02-23T08:27:36;100888.28;;;5.51;100.00
52469;BME280;38381;53.688;10.776;2023-02-23T08:32:37;100906.41;;;5.54;100.00
52469;BME280;38381;53.688;10.776;2023-02-23T08:37:37;100898.59;;;5.51;100.00
52469;BME280;38381;53.688;10.776;2023-02-23T08:42:38;100893.16;;;5.71;100.00
52469;BME280;38381;53.688;10.776;2023-02-23T08:47:38;100898.38;;;5.74;100.00
52469;BME280;38381;53.688;10.776;2023-02-23T08:52:39;100904.66;;;5.83;100.00
52469;BME280;38381;53.688;10.776;2023-02-23T08:57:40;100901.72;;;6.00;100.00
52469;BME280;38381;53.688;10.776;2023-02-23T09:02:42;100904.91;;;6.23;100.00
52469;BME280;38381;53.688;10.776;2023-02-23T09:07:43;100902.25;;;6.20;100.00
52469;BME280;38381;53.688;10.776;2023-02-23T09:12:44;100900.59;;;6.22;100.00
52469;BME280;38381;53.688;10.776;2023-02-23T09:17:45;100897.97;;;6.20;100.00
52469;BME280;38381;53.688;10.776;2023-02-23T09:22:46;100905.09;;;6.31;100.00
52469;BME280;38381;53.688;10.776;2023-02-23T09:27:53;100900.06;;;6.35;100.00
52469;BME280;38381;53.688;10.776;2023-02-23T09:32:56;100908.94;;;6.47;100.00
52469;BME280;38381;53.688;10.776;2023-02-23T09:37:56;100905.28;;;6.72;100.00
52469;BME280;38381;53.688;10.776;2023-02-23T09:43:28;100901.97;;;6.77;100.00
52469;BME280;38381;53.688;10.776;2023-02-23T09:48:32;100902.31;;;6.91;100.00
52469;BME280;38381;53.688;10.776;2023-02-23T09:53:52;100904.13;;;6.95;100.00
52469;BME280;38381;53.688;10.776;2023-02-23T09:58:54;100906.84;;;7.01;100.00
52469;BME280;38381;53.688;10.776;2023-02-23T10:09:30;100913.69;;;6.99;100.00
52469;BME280;38381;53.688;10.776;2023-02-23T10:25:46;100907.47;;;7.29;100.00
52469;BME280;38381;53.688;10.776;2023-02-23T10:30:49;100917.09;;;7.38;100.00
52469;BME280;38381;53.688;10.776;2023-02-23T10:35:56;100917.22;;;7.42;100.00
52469;BME280;38381;53.688;10.776;2023-02-23T10:40:57;100920.13;;;7.58;99.67
52469;BME280;38381;53.688;10.776;2023-02-23T10:45:58;100916.63;;;7.56;99.15
52469;BME280;38381;53.688;10.776;2023-02-23T10:51:00;100920.00;;;7.52;98.91
52469;BME280;38381;53.688;10.776;2023-02-23T10:56:04;100922.53;;;7.49;98.83
52469;BME280;38381;53.688;10.776;2023-02-23T11:01:05;100919.09;;;7.50;98.12
52469;BME280;38381;53.688;10.776;2023-02-23T11:06:06;100924.47;;;7.59;97.07
52469;BME280;38381;53.688;10.776;2023-02-23T11:11:27;100927.03;;;7.59;96.85
52469;BME280;38381;53.688;10.776;2023-02-23T11:16:29;100928.59;;;7.51;96.10
52469;BME280;38381;53.688;10.776;2023-02-23T11:21:37;100915.34;;;7.35;96.31
52469;BME280;38381;53.688;10.776;2023-02-23T11:26:41;100918.09;;;7.43;95.67
52469;BME280;38381;53.688;10.776;2023-02-23T11:31:50;100905.09;;;7.38;95.36
52469;BME280;38381;53.688;10.776;2023-02-23T11:37:01;100901.88;;;7.49;94.91
52469;BME280;38381;53.688;10.776;2023-02-23T11:47:21;100888.53;;;7.70;95.11
52469;BME280;38381;53.688;10.776;2023-02-23T11:52:23;100888.50;;;7.68;94.17
52469;BME280;38381;53.688;10.776;2023-02-23T11:57:30;100882.41;;;7.63;93.05
52469;BME280;38381;53.688;10.776;2023-02-23T12:02:49;100879.00;;;7.65;92.71
52469;BME280;38381;53.688;10.776;2023-02-23T12:23:32;100871.91;;;7.55;90.50
52469;BME280;38381;53.688;10.776;2023-02-23T12:28:42;100875.44;;;7.59;90.39
52469;BME280;38381;53.688;10.776;2023-02-23T12:33:47;100878.84;;;7.58;90.17
52469;BME280;38381;53.688;10.776;2023-02-23T12:39:04;100875.44;;;7.60;89.67
52469;BME280;38381;53.688;10.776;2023-02-23T12:49:42;100875.22;;;7.50;89.90
52469;BME280;38381;53.688;10.776;2023-02-23T12:54:44;100876.91;;;7.48;90.18
52469;BME280;38381;53.688;10.776;2023-02-23T13:05:36;100877.94;;;7.56;90.69
52469;BME280;38381;53.688;10.776;2023-02-23T13:10:58;100874.41;;;7.52;90.03
52469;BME280;38381;53.688;10.776;2023-02-23T13:16:15;100874.41;;;7.52;88.84
52469;BME280;38381;53.688;10.776;2023-02-23T13:21:28;100878.25;;;7.30;89.47
52469;BME280;38381;53.688;10.776;2023-02-23T13:26:56;100866.53;;;7.46;88.48
52469;BME280;38381;53.688;10.776;2023-02-23T13:32:00;100860.50;;;7.45;88.44
52469;BME280;38381;53.688;10.776;2023-02-23T13:37:03;100855.47;;;7.52;88.42
52469;BME280;38381;53.688;10.776;2023-02-23T13:47:46;100857.16;;;7.50;88.49
52469;BME280;38381;53.688;10.776;2023-02-23T13:52:52;100853.69;;;7.48;88.31
52469;BME280;38381;53.688;10.776;2023-02-23T13:58:09;100853.63;;;7.44;88.21
52469;BME280;38381;53.688;10.776;2023-02-23T14:03:24;100864.84;;;7.48;87.48
52469;BME280;38381;53.688;10.776;2023-02-23T14:08:32;100854.50;;;7.45;87.45
52469;BME280;38381;53.688;10.776;2023-02-23T14:13:40;100855.31;;;7.44;87.10
52469;BME280;38381;53.688;10.776;2023-02-23T14:19:29;100862.97;;;7.39;87.56
52469;BME280;38381;53.688;10.776;2023-02-23T14:24:30;100864.34;;;7.23;88.64
52469;BME280;38381;53.688;10.776;2023-02-23T14:40:34;100863.19;;;7.49;86.78
52469;BME280;38381;53.688;10.776;2023-02-23T14:45:38;100855.31;;;7.42;87.22
52469;BME280;38381;53.688;10.776;2023-02-23T14:50:39;100855.22;;;7.39;87.05
52469;BME280;38381;53.688;10.776;2023-02-23T14:55:40;100861.28;;;7.41;87.55
52469;BME280;38381;53.688;10.776;2023-02-23T15:00:44;100859.69;;;7.47;87.34
52469;BME280;38381;53.688;10.776;2023-02-23T15:05:49;100855.44;;;7.50;87.30
52469;BME280;38381;53.688;10.776;2023-02-23T15:11:04;100858.25;;;7.61;86.52
52469;BME280;38381;53.688;10.776;2023-02-23T15:16:17;100857.25;;;7.53;86.65
52469;BME280;38381;53.688;10.776;2023-02-23T15:21:22;100853.81;;;7.54;86.71
52469;BME280;38381;53.688;10.776;2023-02-23T15:26:27;100852.97;;;7.55;86.97
52469;BME280;38381;53.688;10.776;2023-02-23T15:31:31;100853.09;;;7.62;86.73
52469;BME280;38381;53.688;10.776;2023-02-23T15:36:32;100852.19;;;7.59;86.73
52469;BME280;38381;53.688;10.776;2023-02-23T15:41:37;100857.25;;;7.53;87.54
52469;BME280;38381;53.688;10.776;2023-02-23T15:46:38;100859.69;;;7.48;87.82
52469;BME280;38381;53.688;10.776;2023-02-23T15:51:47;100847.03;;;7.59;86.71
52469;BME280;38381;53.688;10.776;2023-02-23T15:56:55;100856.34;;;7.52;87.15
52469;BME280;38381;53.688;10.776;2023-02-23T16:01:58;100850.53;;;7.62;87.18
52469;BME280;38381;53.688;10.776;2023-02-23T16:07:12;100843.44;;;7.51;87.33
52469;BME280;38381;53.688;10.776;2023-02-23T16:12:18;100844.41;;;7.57;87.57
52469;BME280;38381;53.688;10.776;2023-02-23T16:17:36;100839.19;;;7.54;87.50
52469;BME280;38381;53.688;10.776;2023-02-23T16:22:40;100843.44;;;7.52;87.29
52469;BME280;38381;53.688;10.776;2023-02-23T16:27:42;100845.13;;;7.50;87.72
52469;BME280;38381;53.688;10.776;2023-02-23T16:32:44;100844.53;;;7.63;87.78
52469;BME280;38381;53.688;10.776;2023-02-23T16:38:00;100843.69;;;7.63;87.56
52469;BME280;38381;53.688;10.776;2023-02-23T16:43:00;100846.03;;;7.52;87.82
52469;BME280;38381;53.688;10.776;2023-02-23T16:48:01;100843.44;;;7.51;88.64
52469;BME280;38381;53.688;10.776;2023-02-23T16:53:03;100842.44;;;7.45;89.39
52469;BME280;38381;53.688;10.776;2023-02-23T16:58:14;100840.66;;;7.41;90.22
52469;BME280;38381;53.688;10.776;2023-02-23T17:03:26;100843.19;;;7.40;90.26
52469;BME280;38381;53.688;10.776;2023-02-23T17:08:28;100850.03;;;7.38;90.15
52469;BME280;38381;53.688;10.776;2023-02-23T17:13:29;100858.44;;;7.29;90.72
52469;BME280;38381;53.688;10.776;2023-02-23T17:18:35;100862.03;;;7.36;90.71
52469;BME280;38381;53.688;10.776;2023-02-23T17:23:36;100853.97;;;7.20;90.96
52469;BME280;38381;53.688;10.776;2023-02-23T17:28:42;100866.06;;;7.23;90.26
52469;BME280;38381;53.688;10.776;2023-02-23T17:33:43;100878.13;;;7.24;89.63
52469;BME280;38381;53.688;10.776;2023-02-23T17:38:44;100874.28;;;7.07;89.71
52469;BME280;38381;53.688;10.776;2023-02-23T17:43:44;100875.19;;;7.09;89.28
52469;BME280;38381;53.688;10.776;2023-02-23T17:48:45;100868.91;;;6.96;88.28
52469;BME280;38381;53.688;10.776;2023-02-23T17:53:48;100881.56;;;6.85;86.07
52469;BME280;38381;53.688;10.776;2023-02-23T17:58:49;100876.72;;;6.64;83.70
52469;BME280;38381;53.688;10.776;2023-02-23T18:03:49;100881.69;;;6.55;84.02
52469;BME280;38381;53.688;10.776;2023-02-23T18:08:50;100891.06;;;6.53;81.23
52469;BME280;38381;53.688;10.776;2023-02-23T18:13:50;100893.09;;;6.31;80.44
52469;BME280;38381;53.688;10.776;2023-02-23T18:18:51;100891.56;;;6.39;80.59
52469;BME280;38381;53.688;10.776;2023-02-23T18:23:52;100888.84;;;6.33;80.82
52469;BME280;38381;53.688;10.776;2023-02-23T18:28:53;100887.50;;;6.14;80.36
52469;BME280;38381;53.688;10.776;2023-02-23T18:33:55;100880.69;;;6.16;80.26
52469;BME280;38381;53.688;10.776;2023-02-23T18:38:57;100893.06;;;5.98;80.08
52469;BME280;38381;53.688;10.776;2023-02-23T18:44:03;100890.97;;;5.84;79.57
52469;BME280;38381;53.688;10.776;2023-02-23T18:49:04;100902.19;;;5.88;78.83
52469;BME280;38381;53.688;10.776;2023-02-23T18:54:05;100896.28;;;5.91;78.13
52469;BME280;38381;53.688;10.776;2023-02-23T18:59:11;100898.25;;;5.69;78.71
52469;BME280;38381;53.688;10.776;2023-02-23T19:04:11;100904.81;;;5.58;78.29
52469;BME280;38381;53.688;10.776;2023-02-23T19:09:12;100905.25;;;5.44;78.69
52469;BME280;38381;53.688;10.776;2023-02-23T19:14:15;100899.00;;;5.36;79.79
52469;BME280;38381;53.688;10.776;2023-02-23T19:19:17;100900.94;;;5.15;78.57
52469;BME280;38381;53.688;10.776;2023-02-23T19:24:17;100896.72;;;4.90;78.50
52469;BME280;38381;53.688;10.776;2023-02-23T19:29:19;100898.81;;;4.74;76.21
52469;BME280;38381;53.688;10.776;2023-02-23T19:34:20;100902.69;;;4.61;76.52
52469;BME280;38381;53.688;10.776;2023-02-23T19:39:20;100902.44;;;4.54;76.91
52469;BME280;38381;53.688;10.776;2023-02-23T19:44:21;100913.56;;;4.29;76.54
52469;BME280;38381;53.688;10.776;2023-02-23T19:49:22;100911.53;;;4.20;76.09
52469;BME280;38381;53.688;10.776;2023-02-23T19:54:22;100907.03;;;4.13;76.51
52469;BME280;38381;53.688;10.776;2023-02-23T19:59:25;100923.63;;;3.98;76.96
52469;BME280;38381;53.688;10.776;2023-02-23T20:04:27;100927.47;;;3.86;77.37
52469;BME280;38381;53.688;10.776;2023-02-23T20:09:28;100928.75;;;3.74;77.19
52469;BME280;38381;53.688;10.776;2023-02-23T20:14:29;100928.19;;;3.83;77.35
52469;BME280;38381;53.688;10.776;2023-02-23T20:19:30;100930.28;;;3.69;77.98
52469;BME280;38381;53.688;10.776;2023-02-23T20:24:30;100926.78;;;3.67;77.77
52469;BME280;38381;53.688;10.776;2023-02-23T20:29:31;100920.75;;;3.67;78.12
52469;BME280;38381;53.688;10.776;2023-02-23T20:34:33;100917.81;;;3.56;77.95
52469;BME280;38381;53.688;10.776;2023-02-23T20:39:34;100918.28;;;3.46;78.79
52469;BME280;38381;53.688;10.776;2023-02-23T20:44:35;100926.59;;;3.40;79.93
52469;BME280;38381;53.688;10.776;2023-02-23T20:49:37;100925.03;;;3.43;79.66
52469;BME280;38381;53.688;10.776;2023-02-23T20:54:37;100919.22;;;3.48;79.46
52469;BME280;38381;53.688;10.776;2023-02-23T20:59:39;100907.22;;;3.47;79.71
52469;BME280;38381;53.688;10.776;2023-02-23T21:04:39;100909.31;;;3.34;80.68
52469;BME280;38381;53.688;10.776;2023-02-23T21:09:43;100906.06;;;3.38;81.10
52469;BME280;38381;53.688;10.776;2023-02-23T21:14:46;100908.84;;;3.45;80.37
52469;BME280;38381;53.688;10.776;2023-02-23T21:19:47;100915.38;;;3.36;80.57
52469;BME280;38381;53.688;10.776;2023-02-23T21:24:47;100909.66;;;3.43;78.97
52469;BME280;38381;53.688;10.776;2023-02-23T21:29:48;100903.38;;;3.35;78.64
52469;BME280;38381;53.688;10.776;2023-02-23T21:34:48;100897.47;;;3.38;76.98
52469;BME280;38381;53.688;10.776;2023-02-23T21:39:49;100885.47;;;3.37;76.45
52469;BME280;38381;53.688;10.776;2023-02-23T21:44:50;100888.75;;;3.33;76.41
52469;BME280;38381;53.688;10.776;2023-02-23T21:49:50;100881.69;;;3.27;76.81
52469;BME280;38381;53.688;10.776;2023-02-23T21:54:50;100889.63;;;3.33;76.98
52469;BME280;38381;53.688;10.776;2023-02-23T21:59:51;100881.06;;;3.33;77.77
52469;BME280;38381;53.688;10.776;2023-02-23T22:04:52;100883.84;;;3.39;76.11
52469;BME280;38381;53.688;10.776;2023-02-23T22:09:52;100880.19;;;3.32;76.42
52469;BME280;38381;53.688;10.776;2023-02-23T22:14:53;100866.91;;;3.20;75.32
52469;BME280;38381;53.688;10.776;2023-02-23T22:19:53;100859.97;;;3.17;74.51
52469;BME280;38381;53.688;10.776;2023-02-23T22:24:54;100865.28;;;3.22;74.99
52469;BME280;38381;53.688;10.776;2023-02-23T22:29:54;100856.47;;;3.15;74.98
52469;BME280;38381;53.688;10.776;2023-02-23T22:34:59;100861.13;;;3.26;74.78
52469;BME280;38381;53.688;10.776;2023-02-23T22:40:00;100858.63;;;3.27;74.17
52469;BME280;38381;53.688;10.776;2023-02-23T22:45:16;100859.50;;;3.28;75.02
52469;BME280;38381;53.688;10.776;2023-02-23T22:50:17;100848.06;;;3.42;73.51
52469;BME280;38381;53.688;10.776;2023-02-23T22:55:18;100849.06;;;3.23;73.57
52469;BME280;38381;53.688;10.776;2023-02-23T23:00:18;100844.47;;;3.37;73.21
52469;BME280;38381;53.688;10.776;2023-02-23T23:05:19;100835.78;;;3.33;74.17
52469;BME280;38381;53.688;10.776;2023-02-23T23:10:20;100832.66;;;3.40;72.88
52469;BME280;38381;53.688;10.776;2023-02-23T23:15:21;100816.38;;;3.40;72.49
52469;BME280;38381;53.688;10.776;2023-02-23T23:20:21;100815.44;;;3.38;73.20
52469;BME280;38381;53.688;10.776;2023-02-23T23:25:24;100809.56;;;3.40;72.40
52469;BME280;38381;53.688;10.776;2023-02-23T23:30:25;100795.91;;;3.41;73.03
52469;BME280;38381;53.688;10.776;2023-02-23T23:35:28;100788.84;;;3.34;72.91
52469;BME280;38381;53.688;10.776;2023-02-23T23:40:28;100778.91;;;3.43;72.96
52469;BME280;38381;53.688;10.776;2023-02-23T23:45:37;100776.06;;;3.36;74.13
52469;BME280;38381;53.688;10.776;2023-02-23T23:50:38;100766.78;;;3.39;72.23
52469;BME280;38381;53.688;10.776;2023-02-23T23:55:38;100755.81;;;3.43;72.45
